createdAt,value
2022-09-28T00:00:26.291Z,981.1916504
2022-09-28T00:02:01.369Z,981.2075806
2022-09-28T00:02:41.865Z,981.168335
2022-09-28T00:03:44.677Z,981.1453247
2022-09-28T00:04:44.337Z,981.1820068
2022-09-28T00:05:40.594Z,981.1030273
2022-09-28T00:06:45.777Z,981.2028198
2022-09-28T00:07:44.509Z,981.1924438
2022-09-28T00:08:40.130Z,981.1587524
2022-09-28T00:09:39.662Z,981.1060791
2022-09-28T00:10:34.387Z,981.1876831
2022-09-28T00:11:43.395Z,981.147583
2022-09-28T00:12:36.023Z,981.2106323
2022-09-28T00:13:40.214Z,981.1445313
2022-09-28T00:14:39.754Z,981.1835327
2022-09-28T00:15:40.429Z,981.1939087
2022-09-28T00:16:37.879Z,981.1325684
2022-09-28T00:17:38.167Z,981.1611938
2022-09-28T00:18:40.302Z,981.0584106
2022-09-28T00:19:39.406Z,981.0687256
2022-09-28T00:21:36.608Z,981.0239258
2022-09-28T00:22:36.313Z,981.0631104
2022-09-28T00:23:32.720Z,981.1365356
2022-09-28T00:24:37.473Z,981.041626
2022-09-28T00:25:30.377Z,981.107666
2022-09-28T00:26:33.599Z,981.1206055
2022-09-28T00:27:25.837Z,981.1021118
2022-09-28T00:28:28.107Z,981.0175171
2022-09-28T00:29:23.099Z,981.0861206
2022-09-28T00:30:26.903Z,981.0917358
2022-09-28T00:31:19.349Z,980.9968262
2022-09-28T00:33:30.331Z,981.0479736
2022-09-28T00:33:53.111Z,981.0176392
2022-09-28T00:34:51.081Z,980.9929199
2022-09-28T00:35:47.885Z,981.0144043
2022-09-28T00:36:52.723Z,980.9873657
2022-09-28T00:37:52.329Z,981.0232544
2022-09-28T00:38:55.094Z,981.0406494
2022-09-28T00:39:54.434Z,981.008728
2022-09-28T00:40:50.425Z,981.0557861
2022-09-28T00:41:58.102Z,981.0056763
2022-09-28T00:42:50.798Z,981.019165
2022-09-28T00:43:52.829Z,981.0009155
2022-09-28T00:44:47.332Z,981.0065918
2022-09-28T00:45:49.781Z,981.0462646
2022-09-28T00:46:51.682Z,980.9642334
2022-09-28T00:47:53.198Z,981.0031128
2022-09-28T00:48:45.745Z,980.9712524
2022-09-28T00:49:45.622Z,980.9289551
2022-09-28T00:51:43.450Z,980.8388062
2022-09-28T00:52:37.631Z,980.9467163
2022-09-28T00:53:39.302Z,980.8380737
2022-09-28T00:54:37.401Z,980.9537354
2022-09-28T00:56:31.157Z,980.9147949
2022-09-28T00:57:32.587Z,980.9066162
2022-09-28T00:58:27.836Z,980.9066162
2022-09-28T00:59:34.163Z,980.8828125
2022-09-28T01:00:29.507Z,980.8517456
2022-09-28T01:01:36.715Z,980.8540039
2022-09-28T01:02:31.397Z,980.8612671
2022-09-28T01:03:30.109Z,980.8293457
2022-09-28T01:04:30.086Z,980.8134155
2022-09-28T01:06:25.855Z,980.8237305
2022-09-28T01:07:20.305Z,980.8237305
2022-09-28T01:08:21.606Z,980.882019
2022-09-28T01:09:16.147Z,980.8269043
2022-09-28T01:10:59.944Z,980.822876
2022-09-28T01:11:54.964Z,980.8373413
2022-09-28T01:12:57.198Z,980.9138184
2022-09-28T01:13:57.197Z,980.8395996
2022-09-28T01:14:52.374Z,980.8548584
2022-09-28T01:16:52.788Z,980.8699951
2022-09-28T01:17:49.039Z,980.7909546
2022-09-28T01:18:52.180Z,980.7831421
2022-09-28T01:20:01.653Z,980.8276367
2022-09-28T01:21:59.489Z,980.8517456
2022-09-28T01:22:53.913Z,980.7728271
2022-09-28T01:24:06.032Z,980.736084
2022-09-28T01:24:58.353Z,980.7624512
2022-09-28T01:25:59.575Z,980.7416382
2022-09-28T01:26:54.805Z,980.7209473
2022-09-28T01:27:56.756Z,980.791748
2022-09-28T01:28:54.936Z,980.8046875
2022-09-28T01:29:56.068Z,980.6856079
2022-09-28T01:30:54.102Z,980.7327271
2022-09-28T01:31:56.533Z,980.7137451
2022-09-28T01:32:51.953Z,980.734436
2022-09-28T01:33:50.571Z,980.7000122
2022-09-28T01:34:50.677Z,980.7575073
2022-09-28T01:36:47.189Z,980.7310791
2022-09-28T01:37:50.448Z,980.7359619
2022-09-28T01:38:51.720Z,980.7566528
2022-09-28T01:39:50.764Z,980.7670288
2022-09-28T01:40:52.122Z,980.7224731
2022-09-28T01:41:47.273Z,980.7272949
2022-09-28T01:42:48.418Z,980.713501
2022-09-28T01:43:45.152Z,980.7686768
2022-09-28T01:44:48.966Z,980.7079468
2022-09-28T01:46:40.408Z,980.7398682
2022-09-28T01:47:35.098Z,980.7423706
2022-09-28T01:48:37.342Z,980.7445068
2022-09-28T01:49:37.246Z,980.7575073
2022-09-28T01:51:34.125Z,980.7229614
2022-09-28T01:52:30.399Z,980.7493896
2022-09-28T01:53:32.896Z,980.7493896
2022-09-28T01:54:28.336Z,980.7359619
2022-09-28T01:56:38.061Z,980.7126465
2022-09-28T01:57:33.320Z,980.7493896
2022-09-28T01:58:31.453Z,980.7312012
2022-09-28T01:59:34.962Z,980.7333374
2022-09-28T02:01:19.521Z,980.7351074
2022-09-28T02:01:59.941Z,980.7199707
2022-09-28T02:02:56.843Z,980.6969604
2022-09-28T02:03:56.167Z,980.6306152
2022-09-28T02:04:55.799Z,980.7487793
2022-09-28T02:06:56.693Z,980.6690674
2022-09-28T02:07:56.788Z,980.7501831
2022-09-28T02:08:55.963Z,980.7104492
2022-09-28T02:09:52.304Z,980.7333374
2022-09-28T02:11:55.327Z,980.6592407
2022-09-28T02:12:58.075Z,980.6936035
2022-09-28T02:13:58.416Z,980.6743164
2022-09-28T02:14:54.462Z,980.722168
2022-09-28T02:17:00.841Z,980.7062378
2022-09-28T02:18:01.612Z,980.6617432
2022-09-28T02:18:56.546Z,980.6592407
2022-09-28T02:19:58.532Z,980.701416
2022-09-28T02:20:52.974Z,980.7333374
2022-09-28T02:21:52.769Z,980.7415771
2022-09-28T02:22:48.950Z,980.7023315
2022-09-28T02:23:47.535Z,980.8074951
2022-09-28T02:24:47.103Z,980.7575073
2022-09-28T02:25:44.353Z,980.7653198
2022-09-28T02:26:47.175Z,980.7333374
2022-09-28T02:27:40.559Z,980.7885132
2022-09-28T02:28:42.602Z,980.7700195
2022-09-28T02:29:38.362Z,980.7380981
2022-09-28T02:31:36.338Z,980.6592407
2022-09-28T02:32:41.605Z,980.7143555
2022-09-28T02:33:37.310Z,980.7509155
2022-09-28T02:34:39.462Z,980.7246704
2022-09-28T02:36:29.915Z,980.7380981
2022-09-28T02:37:29.364Z,980.7669678
2022-09-28T02:39:13.923Z,980.7429199
2022-09-28T02:39:28.401Z,980.6776733
2022-09-28T02:41:24.779Z,980.6992188
2022-09-28T02:42:25.416Z,980.7359619
2022-09-28T02:43:21.831Z,980.7302856
2022-09-28T02:44:26.979Z,980.7695313
2022-09-28T02:46:21.492Z,980.7980347
2022-09-28T02:47:20.468Z,980.8027954
2022-09-28T02:48:36.119Z,980.821228
2022-09-28T02:48:43.013Z,980.821228
2022-09-28T02:49:00.112Z,980.821228
2022-09-28T02:49:22.252Z,980.8428955
2022-09-28T02:51:21.584Z,980.8070068
2022-09-28T02:52:22.642Z,980.8674927
2022-09-28T02:53:25.467Z,980.8356323
2022-09-28T02:54:19.007Z,980.8195801
2022-09-28T02:56:18.998Z,980.8986206
2022-09-28T02:57:18.738Z,980.8908081
2022-09-28T02:58:17.586Z,980.8484497
2022-09-28T02:59:21.495Z,980.8692017
2022-09-28T03:01:23.554Z,980.9032593
2022-09-28T03:02:16.939Z,980.921814
2022-09-28T03:03:20.111Z,980.921814
2022-09-28T03:04:18.215Z,980.8770142
2022-09-28T03:06:28.018Z,980.840332
2022-09-28T03:07:27.602Z,980.8770142
2022-09-28T03:08:30.447Z,980.8873291
2022-09-28T03:09:31.884Z,980.8291626
2022-09-28T03:11:32.238Z,980.8347168
2022-09-28T03:12:28.657Z,980.850708
2022-09-28T03:13:33.181Z,980.7798462
2022-09-28T03:14:28.589Z,980.8061523
2022-09-28T03:15:32.777Z,980.8117676
2022-09-28T03:16:30.482Z,980.7932739
2022-09-28T03:18:06.679Z,980.7728271
2022-09-28T03:20:47.762Z,980.8588257
2022-09-28T03:22:09.832Z,980.8209229
2022-09-28T03:23:24.307Z,980.8074951
2022-09-28T03:23:24.771Z,980.8074951
2022-09-28T03:23:30.213Z,980.8074951
2022-09-28T03:24:13.298Z,980.8306274
2022-09-28T03:25:12.054Z,980.8012695
2022-09-28T03:26:08.552Z,980.8165894
2022-09-28T03:27:03.144Z,980.7631226
2022-09-28T03:28:12.349Z,980.7351074
2022-09-28T03:29:07.467Z,980.8078003
2022-09-28T03:30:07.089Z,980.7176514
2022-09-28T03:31:02.125Z,980.7932739
2022-09-28T03:32:02.279Z,980.7821655
2022-09-28T03:32:56.597Z,980.8029785
2022-09-28T03:33:59.522Z,980.8443604
2022-09-28T03:34:53.835Z,980.8284302
2022-09-28T03:35:56.799Z,980.8421631
2022-09-28T03:36:55.728Z,980.8317871
2022-09-28T03:37:58.520Z,980.8685303
2022-09-28T03:38:57.912Z,980.8421631
2022-09-28T03:39:58.146Z,980.8844604
2022-09-28T03:40:52.195Z,980.8395996
2022-09-28T03:41:53.472Z,980.8629761
2022-09-28T03:42:52.171Z,980.894043
2022-09-28T03:43:46.321Z,980.8724976
2022-09-28T03:44:48.730Z,980.8565674
2022-09-28T03:45:43.165Z,980.8643799
2022-09-28T03:46:45.738Z,980.972168
2022-09-28T03:47:45.717Z,980.8587646
2022-09-28T03:48:38.436Z,980.8643799
2022-09-28T03:49:39.478Z,980.8461914
2022-09-28T03:51:41.621Z,980.8484497
2022-09-28T03:52:44.030Z,980.8612671
2022-09-28T03:53:37.392Z,980.8795166
2022-09-28T03:54:44.691Z,980.8717041
2022-09-28T03:55:41.607Z,980.8668823
2022-09-28T03:56:33.511Z,980.8643799
2022-09-28T03:57:32.452Z,980.803894
2022-09-28T03:58:31.500Z,980.890686
2022-09-28T03:59:31.509Z,980.8954468
2022-09-28T04:01:30.322Z,980.8795166
2022-09-28T04:02:25.183Z,980.821228
2022-09-28T04:03:21.726Z,980.8156128
2022-09-28T04:04:22.914Z,980.8708496
2022-09-28T04:06:17.553Z,980.8972168
2022-09-28T04:07:10.140Z,980.8786621
2022-09-28T04:08:11.343Z,980.8890381
2022-09-28T04:09:04.880Z,980.8812256
2022-09-28T04:10:51.243Z,980.8190918
2022-09-28T04:11:43.005Z,980.9329834
2022-09-28T04:11:59.504Z,980.9329834
2022-09-28T04:12:02.364Z,980.9329834
2022-09-28T04:12:37.528Z,980.9234619
2022-09-28T04:13:33.683Z,980.871582
2022-09-28T04:14:34.030Z,980.8844604
2022-09-28T04:15:29.395Z,980.9107666
2022-09-28T04:16:29.264Z,980.9807739
2022-09-28T04:17:30.493Z,980.9092407
2022-09-28T04:18:25.777Z,980.9403076
2022-09-28T04:19:30.274Z,981.0240479
2022-09-28T04:20:23.158Z,980.9976807
2022-09-28T04:21:31.590Z,980.9576416
2022-09-28T04:22:24.178Z,980.9624023
2022-09-28T04:23:23.484Z,980.9123535
2022-09-28T04:24:19.570Z,980.930481
2022-09-28T04:26:14.093Z,980.8881836
2022-09-28T04:27:15.949Z,980.9456177
2022-09-28T04:28:17.639Z,980.9663086
2022-09-28T04:29:13.952Z,981.0452881
2022-09-28T04:31:14.880Z,981.0007935
2022-09-28T04:32:10.126Z,980.9606934
2022-09-28T04:33:10.752Z,980.9735718
2022-09-28T04:34:05.082Z,981.0158691
2022-09-28T04:35:04.886Z,980.9606934
2022-09-28T04:36:00.250Z,981.0223389
2022-09-28T04:37:02.703Z,981.0430298
2022-09-28T04:37:55.251Z,981.0064087
2022-09-28T04:38:56.811Z,980.9904175
2022-09-28T04:39:52.831Z,981.0404663
2022-09-28T04:40:58.850Z,980.9799805
2022-09-28T04:41:52.634Z,981.0508423
2022-09-28T04:43:54.473Z,981.0421753
2022-09-28T04:44:36.072Z,981.0407715
2022-09-28T04:45:34.229Z,980.9626465
2022-09-28T04:46:35.353Z,981.0304565
2022-09-28T04:47:31.707Z,981.0456543
2022-09-28T04:48:33.468Z,981.0262451
2022-09-28T04:49:27.437Z,980.9679565
2022-09-28T04:50:26.343Z,980.9498291
2022-09-28T04:51:21.588Z,980.9728394
2022-09-28T04:52:23.208Z,981.0142212
2022-09-28T04:53:19.534Z,980.9904175
2022-09-28T04:54:33.509Z,980.9551392
2022-09-28T04:55:26.135Z,980.9503174
2022-09-28T04:56:22.915Z,980.9265747
2022-09-28T04:57:23.150Z,980.9606934
2022-09-28T04:58:17.399Z,980.9209595
2022-09-28T04:59:23.841Z,980.999939
2022-09-28T05:01:21.804Z,980.979248
2022-09-28T05:02:17.480Z,980.928772
2022-09-28T05:03:22.315Z,980.9631958
2022-09-28T05:04:25.764Z,980.9265747
2022-09-28T05:05:23.162Z,980.9744263
2022-09-28T05:06:18.354Z,980.9481201
2022-09-28T05:07:17.798Z,980.9606934
2022-09-28T05:08:15.878Z,980.90802
2022-09-28T05:09:17.629Z,980.9209595
2022-09-28T05:10:11.866Z,980.9447632
2022-09-28T05:11:09.141Z,980.9503174
2022-09-28T05:12:08.148Z,981.0111084
2022-09-28T05:13:06.444Z,980.9606934
2022-09-28T05:14:08.199Z,980.8817139
2022-09-28T05:15:01.658Z,981.0396729
2022-09-28T05:16:05.457Z,980.9400024
2022-09-28T05:16:59.341Z,980.9584351
2022-09-28T05:17:55.375Z,980.9032593
2022-09-28T05:18:59.214Z,980.9434204
2022-09-28T05:19:56.405Z,980.9593506
2022-09-28T05:21:43.041Z,980.980957
2022-09-28T05:22:28.836Z,981.0046997
2022-09-28T05:23:34.277Z,981.0025024
2022-09-28T05:24:34.966Z,980.9338989
2022-09-28T05:26:41.144Z,980.9728394
2022-09-28T05:27:42.540Z,981.0072021
2022-09-28T05:28:42.781Z,980.9735718
2022-09-28T05:29:44.141Z,980.9394531
2022-09-28T05:30:42.450Z,980.9235229
2022-09-28T05:31:45.132Z,980.9650269
2022-09-28T05:32:43.250Z,980.9489746
2022-09-28T05:33:45.882Z,980.9456177
2022-09-28T05:34:42.467Z,980.9378052
2022-09-28T05:35:53.314Z,980.9378052
2022-09-28T05:35:55.937Z,980.9378052
2022-09-28T05:36:47.346Z,980.9378052
2022-09-28T05:37:51.603Z,980.987915
2022-09-28T05:38:57.134Z,980.911377
2022-09-28T05:39:55.075Z,980.8713989
2022-09-28T05:41:55.082Z,980.8817139
2022-09-28T05:42:56.452Z,980.8579712
2022-09-28T05:43:55.190Z,980.8601685
2022-09-28T05:44:58.741Z,980.8442383
2022-09-28T05:46:55.216Z,980.928772
2022-09-28T05:47:55.525Z,980.8554688
2022-09-28T05:48:55.277Z,980.8795166
2022-09-28T05:50:00.512Z,980.90802
2022-09-28T05:51:55.366Z,980.8920898
2022-09-28T05:53:45.796Z,980.9191895
2022-09-28T05:54:24.251Z,980.9650269
2022-09-28T05:56:26.895Z,980.8731079
2022-09-28T05:57:24.964Z,980.8652344
2022-09-28T05:58:27.320Z,980.9226685
2022-09-28T05:59:30.094Z,980.9067383
2022-09-28T06:01:31.457Z,980.8770142
2022-09-28T06:02:30.298Z,980.8795166
2022-09-28T06:03:31.446Z,980.9240723
2022-09-28T06:04:29.422Z,980.9503174
2022-09-28T06:06:31.508Z,981.0374146
2022-09-28T06:07:33.634Z,980.9606934
2022-09-28T06:08:32.748Z,980.9368896
2022-09-28T06:09:32.619Z,980.9265747
2022-09-28T06:11:35.158Z,981.0262451
2022-09-28T06:12:31.538Z,980.9050293
2022-09-28T06:13:34.916Z,980.9416504
2022-09-28T06:14:29.511Z,980.9576416
2022-09-28T06:15:42.081Z,981.0077515
2022-09-28T06:16:40.486Z,981.0396729
2022-09-28T06:16:43.934Z,981.0396729
2022-09-28T06:17:38.761Z,981.0396729
2022-09-28T06:18:41.183Z,981.055603
2022-09-28T06:19:42.066Z,981.0603027
2022-09-28T06:21:46.293Z,981.1107788
2022-09-28T06:23:33.308Z,981.1491699
2022-09-28T06:24:13.474Z,981.0789185
2022-09-28T06:25:12.021Z,981.1085815
2022-09-28T06:26:12.819Z,981.0797119
2022-09-28T06:27:11.795Z,981.1029663
2022-09-28T06:28:12.419Z,981.0996094
2022-09-28T06:29:16.005Z,981.2622681
2022-09-28T06:29:19.636Z,981.2622681
2022-09-28T06:30:12.052Z,981.1673584
2022-09-28T06:32:14.400Z,981.1362305
2022-09-28T06:33:07.170Z,981.225647
2022-09-28T06:34:09.061Z,981.2097168
2022-09-28T06:35:01.559Z,981.2647705
2022-09-28T06:36:59.590Z,981.272644
2022-09-28T06:37:58.995Z,981.2121582
2022-09-28T06:38:58.134Z,981.2647705
2022-09-28T06:39:52.465Z,981.2224731
2022-09-28T06:41:49.738Z,981.2647705
2022-09-28T06:42:48.086Z,981.2143555
2022-09-28T06:43:43.784Z,981.3484497
2022-09-28T06:44:50.629Z,981.3428955
2022-09-28T06:46:46.669Z,981.350708
2022-09-28T06:47:41.447Z,981.361084
2022-09-28T06:48:39.189Z,981.3954468
2022-09-28T06:49:33.602Z,981.3666992
2022-09-28T06:51:29.075Z,981.3356323
2022-09-28T06:52:30.742Z,981.4593506
2022-09-28T06:53:30.826Z,981.4728394
2022-09-28T06:54:31.096Z,981.4098511
2022-09-28T06:55:22.912Z,981.4395142
2022-09-28T06:56:30.603Z,981.4921875
2022-09-28T06:56:32.995Z,981.4921875
2022-09-28T06:57:25.809Z,981.5184937
2022-09-28T06:58:20.206Z,981.4611206
2022-09-28T06:59:24.006Z,981.4586182
2022-09-28T07:01:21.273Z,981.482666
2022-09-28T07:02:13.154Z,981.493042
2022-09-28T07:03:11.449Z,981.5112305
2022-09-28T07:04:10.297Z,981.5901489
2022-09-28T07:05:05.996Z,981.5193481
2022-09-28T07:06:51.515Z,981.5177612
2022-09-28T07:07:31.608Z,981.5871582
2022-09-28T07:08:29.711Z,981.5379639
2022-09-28T07:09:33.024Z,981.5457764
2022-09-28T07:09:35.880Z,981.5457764
2022-09-28T07:11:28.603Z,981.5585938
2022-09-28T07:12:23.772Z,981.5690918
2022-09-28T07:13:47.044Z,981.5945435
2022-09-28T07:13:48.415Z,981.5945435
2022-09-28T07:13:49.688Z,981.5945435
2022-09-28T07:14:43.085Z,981.5681152
2022-09-28T07:14:46.060Z,981.5681152
2022-09-28T07:14:46.842Z,981.5681152
2022-09-28T07:16:17.042Z,981.5569458
2022-09-28T07:17:17.809Z,981.6096191
2022-09-28T07:18:13.200Z,981.6303101
2022-09-28T07:19:13.900Z,981.6479492
2022-09-28T07:20:18.125Z,981.6445923
2022-09-28T07:20:19.130Z,981.6445923
2022-09-28T07:20:19.729Z,981.6445923
2022-09-28T07:21:17.541Z,981.6104736
2022-09-28T07:21:26.669Z,981.6104736
2022-09-28T07:21:28.607Z,981.6104736
2022-09-28T07:22:10.038Z,981.6479492
2022-09-28T07:23:18.647Z,981.6557617
2022-09-28T07:23:19.034Z,981.6557617
2022-09-28T07:23:19.670Z,981.6557617
2022-09-28T07:24:07.951Z,981.6433105
2022-09-28T07:25:09.566Z,981.7037354
2022-09-28T07:27:05.880Z,981.6479492
2022-09-28T07:28:01.980Z,981.6216431
2022-09-28T07:29:01.149Z,981.739502
2022-09-28T07:29:59.482Z,981.7762451
2022-09-28T07:31:55.801Z,981.7490845
2022-09-28T07:32:50.992Z,981.8464966
2022-09-28T07:33:48.757Z,981.8249512
2022-09-28T07:34:47.510Z,981.788269
2022-09-28T07:36:43.706Z,981.7619019
2022-09-28T07:37:36.249Z,981.8063965
2022-09-28T07:38:42.032Z,981.8671875
2022-09-28T07:39:34.514Z,981.8909912
2022-09-28T07:41:29.488Z,981.8543701
2022-09-28T07:42:30.663Z,981.878418
2022-09-28T07:43:22.895Z,981.878418
2022-09-28T07:44:20.042Z,981.9492798
2022-09-28T07:46:19.497Z,981.9470825
2022-09-28T07:47:18.989Z,981.9492798
2022-09-28T07:48:13.809Z,981.9332886
2022-09-28T07:49:47.805Z,981.9302979
2022-09-28T07:52:29.131Z,981.9587402
2022-09-28T07:52:50.120Z,981.9729614
2022-09-28T07:53:53.535Z,981.9554443
2022-09-28T07:54:48.136Z,982.0368042
2022-09-28T07:56:41.907Z,982.0300293
2022-09-28T07:57:41.248Z,982.005127
2022-09-28T07:58:36.369Z,981.9882813
2022-09-28T07:59:34.769Z,982.0527954
2022-09-28T08:01:28.147Z,982.0701294
2022-09-28T08:02:22.686Z,982.0831299
2022-09-28T08:03:19.255Z,982.0671387
2022-09-28T08:04:18.477Z,982.1668701
2022-09-28T08:05:13.754Z,982.1348267
2022-09-28T08:06:10.292Z,982.2139282
2022-09-28T08:07:08.648Z,982.2449951
2022-09-28T08:08:04.636Z,982.2129517
2022-09-28T08:09:07.418Z,982.3023682
2022-09-28T08:10:00.025Z,982.2178345
2022-09-28T08:11:01.492Z,982.2518921
2022-09-28T08:11:53.336Z,982.2097168
2022-09-28T08:12:54.636Z,982.2704468
2022-09-28T08:13:48.849Z,982.2359619
2022-09-28T08:14:46.900Z,982.1259155
2022-09-28T08:16:41.032Z,982.1651001
2022-09-28T08:17:42.917Z,982.1651001
2022-09-28T08:18:35.514Z,982.1992188
2022-09-28T08:19:38.625Z,982.3390503
2022-09-28T08:21:33.308Z,982.2471924
2022-09-28T08:23:17.190Z,982.274353
2022-09-28T08:23:56.647Z,982.2648926
2022-09-28T08:24:54.183Z,982.2785645
2022-09-28T08:26:47.846Z,982.2419434
2022-09-28T08:27:48.310Z,982.2338257
2022-09-28T08:28:43.589Z,982.2912598
2022-09-28T08:29:45.480Z,982.2912598
2022-09-28T08:30:38.120Z,982.2912598
2022-09-28T08:31:38.187Z,982.3071899
2022-09-28T08:32:33.444Z,982.3654785
2022-09-28T08:33:32.865Z,982.357666
2022-09-28T08:34:28.479Z,982.3024902
2022-09-28T08:35:28.001Z,982.3688965
2022-09-28T08:36:25.153Z,982.3666992
2022-09-28T08:37:24.750Z,982.3484497
2022-09-28T08:38:20.101Z,982.3644409
2022-09-28T08:39:19.669Z,982.4274902
2022-09-28T08:40:14.624Z,982.4353027
2022-09-28T08:42:09.716Z,982.440918
2022-09-28T08:43:11.588Z,982.3883057
2022-09-28T08:44:04.275Z,982.3308105
2022-09-28T08:45:06.397Z,982.4603271
2022-09-28T08:45:58.969Z,982.423584
2022-09-28T08:46:56.202Z,982.500061
2022-09-28T08:47:56.285Z,982.4395142
2022-09-28T08:49:06.876Z,982.4659424
2022-09-28T08:49:20.516Z,982.4659424
2022-09-28T08:49:23.799Z,982.4659424
2022-09-28T08:49:52.399Z,982.5217285
2022-09-28T08:50:25.969Z,982.4987793
2022-09-28T08:51:28.355Z,982.5648193
2022-09-28T08:52:20.977Z,982.5281372
2022-09-28T08:53:23.464Z,982.5967407
2022-09-28T08:54:17.336Z,982.5808105
2022-09-28T08:55:55.571Z,982.6422119
2022-09-28T08:56:50.853Z,982.5089111
2022-09-28T08:58:25.300Z,982.5424194
2022-09-28T09:00:01.032Z,982.5948486
2022-09-28T09:00:58.059Z,982.6483765
2022-09-28T09:01:58.586Z,982.5878296
2022-09-28T09:03:52.542Z,982.6828003
2022-09-28T09:04:31.722Z,982.6516113
2022-09-28T09:05:29.735Z,982.6461182
2022-09-28T09:06:29.375Z,982.6773682
2022-09-28T09:07:24.082Z,982.6981201
2022-09-28T09:08:24.763Z,982.7029419
2022-09-28T09:09:19.929Z,982.7259521
2022-09-28T09:10:19.747Z,982.7203979
2022-09-28T09:12:14.071Z,982.7251587
2022-09-28T09:13:09.268Z,982.7564087
2022-09-28T09:14:08.830Z,982.722168
2022-09-28T09:15:04.047Z,982.7748413
2022-09-28T09:16:04.071Z,982.7779541
2022-09-28T09:17:00.639Z,982.7181396
2022-09-28T09:18:58.996Z,982.7564087
2022-09-28T09:19:56.346Z,982.8128662
2022-09-28T09:21:50.902Z,982.7608643
2022-09-28T09:22:53.544Z,982.7793579
2022-09-28T09:23:46.062Z,982.8585815
2022-09-28T09:24:47.907Z,982.8529663
2022-09-28T09:26:42.529Z,982.807373
2022-09-28T09:27:35.057Z,982.9017334
2022-09-28T09:28:37.232Z,982.8121948
2022-09-28T09:29:29.855Z,982.8570557
2022-09-28T09:31:25.473Z,982.848877
2022-09-28T09:32:25.888Z,982.9024048
2022-09-28T09:33:22.228Z,982.9112549
2022-09-28T09:34:21.944Z,982.9989624
2022-09-28T09:35:17.776Z,982.8462524
2022-09-28T09:37:12.370Z,982.8864136
2022-09-28T09:38:12.287Z,982.8414307
2022-09-28T09:39:07.834Z,982.8886108
2022-09-28T09:40:46.475Z,982.9238892
2022-09-28T09:41:25.868Z,982.9851685
2022-09-28T09:42:23.647Z,982.9490356
2022-09-28T09:43:27.965Z,983.0073242
2022-09-28T09:43:31.600Z,983.0073242
2022-09-28T09:44:23.063Z,982.928894
2022-09-28T09:46:19.865Z,982.9124756
2022-09-28T09:47:22.715Z,982.9743652
2022-09-28T09:48:20.750Z,982.9684448
2022-09-28T09:49:23.657Z,982.9807739
2022-09-28T09:50:22.626Z,982.9290771
2022-09-28T09:51:21.012Z,983.0012207
2022-09-28T09:52:24.284Z,982.9351807
2022-09-28T09:53:18.008Z,982.9720459
2022-09-28T09:54:18.140Z,982.9793091
2022-09-28T09:55:13.892Z,983.005127
2022-09-28T09:57:11.042Z,983.0601807
2022-09-28T09:58:10.295Z,983.0177612
2022-09-28T09:59:13.506Z,982.9335327
2022-09-28T10:00:08.954Z,982.9550171
2022-09-28T10:01:13.256Z,982.9848633
2022-09-28T10:02:11.659Z,982.8851318
2022-09-28T10:03:10.874Z,982.9598389
2022-09-28T10:04:08.077Z,982.9553833
2022-09-28T10:05:12.728Z,982.9238892
2022-09-28T10:06:07.631Z,982.9165649
2022-09-28T10:07:06.723Z,982.9434204
2022-09-28T10:08:06.770Z,982.946228
2022-09-28T10:09:08.661Z,982.8964844
2022-09-28T10:10:05.939Z,983.071106
2022-09-28T10:12:02.486Z,982.9908447
2022-09-28T10:13:55.734Z,982.9877319
2022-09-28T10:14:35.450Z,982.9958496
2022-09-28T10:16:33.446Z,982.9849854
2022-09-28T10:17:29.549Z,982.9899902
2022-09-28T10:18:28.526Z,982.9763184
2022-09-28T10:19:26.087Z,983.0342407
2022-09-28T10:21:26.756Z,983.0227051
2022-09-28T10:22:19.412Z,983.0307617
2022-09-28T10:23:15.371Z,982.9938965
2022-09-28T10:24:14.711Z,982.9779663
2022-09-28T10:25:10.071Z,983.0621948
2022-09-28T10:27:05.058Z,983.0805664
2022-09-28T10:28:04.873Z,983.0750122
2022-09-28T10:29:03.734Z,983.048584
2022-09-28T10:29:59.050Z,983.059082
2022-09-28T10:31:53.210Z,983.0480957
2022-09-28T10:32:53.284Z,983.0056763
2022-09-28T10:33:49.556Z,983.0321045
2022-09-28T10:34:50.976Z,983.0722046
2022-09-28T10:35:47.441Z,983.0854492
2022-09-28T10:36:43.055Z,983.0700073
2022-09-28T10:37:43.464Z,983.0700073
2022-09-28T10:38:38.797Z,983.0964966
2022-09-28T10:39:36.258Z,983.194397
2022-09-28T10:41:31.185Z,983.1673584
2022-09-28T10:42:28.668Z,983.1938477
2022-09-28T10:43:28.909Z,983.2650146
2022-09-28T10:44:24.262Z,983.1777954
2022-09-28T10:46:02.383Z,983.1624146
2022-09-28T10:46:43.079Z,983.1525269
2022-09-28T10:47:42.009Z,983.1339111
2022-09-28T10:48:41.988Z,983.2372437
2022-09-28T10:49:46.854Z,983.178894
2022-09-28T10:51:36.297Z,983.1443481
2022-09-28T10:52:31.789Z,983.1998291
2022-09-28T10:53:34.818Z,983.1069336
2022-09-28T10:54:28.325Z,983.1437988
2022-09-28T10:56:25.073Z,983.1414795
2022-09-28T10:57:25.827Z,983.1150513
2022-09-28T10:58:22.006Z,983.1020508
2022-09-28T10:59:20.515Z,983.0892334
2022-09-28T11:00:21.553Z,983.1603394
2022-09-28T11:01:18.653Z,983.1843872
2022-09-28T11:02:21.700Z,983.0970459
2022-09-28T11:03:21.233Z,983.0974731
2022-09-28T11:04:19.736Z,983.1508789
2022-09-28T11:05:15.185Z,983.0825195
2022-09-28T11:07:15.343Z,983.0301514
2022-09-28T11:08:11.775Z,983.109436
2022-09-28T11:09:07.770Z,983.1070557
2022-09-28T11:10:12.523Z,983.0806274
2022-09-28T11:11:50.860Z,983.1207886
2022-09-28T11:12:30.999Z,983.0076294
2022-09-28T11:13:31.552Z,983.0688477
2022-09-28T11:14:41.296Z,983.053772
2022-09-28T11:16:27.585Z,983.1465454
2022-09-28T11:17:22.380Z,983.0882568
2022-09-28T11:18:22.775Z,983.0718994
2022-09-28T11:19:19.167Z,983.0847778
2022-09-28T11:20:26.803Z,983.0684204
2022-09-28T11:20:28.192Z,983.0684204
2022-09-28T11:22:14.080Z,983.1048584
2022-09-28T11:23:12.699Z,983.0756226
2022-09-28T11:24:09.652Z,983.0934448
2022-09-28T11:25:08.553Z,983.1034546
2022-09-28T11:26:05.896Z,983.2064209
2022-09-28T11:27:00.550Z,983.1817017
2022-09-28T11:28:00.274Z,983.1948242
2022-09-28T11:28:55.531Z,983.2126465
2022-09-28T11:29:55.344Z,983.2076416
2022-09-28T11:31:52.933Z,983.1762695
2022-09-28T11:32:45.488Z,983.0546265
2022-09-28T11:33:44.857Z,983.1334229
2022-09-28T11:34:58.034Z,983.194397
2022-09-28T11:34:58.626Z,983.194397
2022-09-28T11:34:58.641Z,983.194397
2022-09-28T11:36:37.943Z,983.1817017
2022-09-28T11:37:33.178Z,983.1688843
2022-09-28T11:38:32.662Z,983.1688843
2022-09-28T11:39:27.989Z,983.1766968